Time,TemperatureF,DewpointF,PressureIn,WindDirection,WindDirectionDegrees,WindSpeedMPH,WindSpeedGustMPH,Humidity,HourlyPrecipIn,Conditions,Clouds,dailyrainin,SoftwareType,DateUTC
2013-01-23 00:57:00,14.4,2.7,29.53,West,270,0.0,0.0,59,0.00,,,0.00,WUHU21623XXSP,2013-01-23 06:57:00,
2013-01-23 01:57:00,14.9,3.2,29.53,SW,225,4.3,4.3,59,0.00,,,0.00,WUHU21623XXSP,2013-01-23 07:57:00,
2013-01-23 02:57:00,15.3,3.6,29.52,SW,225,0.0,0.0,59,0.00,,,0.00,WUHU21623XXSP,2013-01-23 08:57:00,
2013-01-23 03:57:00,15.6,3.8,29.50,SW,225,0.0,0.0,59,0.00,,,0.00,WUHU21623XXSP,2013-01-23 09:57:00,
2013-01-23 04:57:00,15.6,3.8,29.48,SSE,158,2.2,2.2,59,0.00,,,0.00,WUHU21623XXSP,2013-01-23 10:57:00,
2013-01-23 05:42:00,15.8,3.9,29.50,South,180,3.8,3.8,59,0.00,,,0.00,WUHU21623XXSP,2013-01-23 11:42:00,
2013-01-23 05:47:00,16.0,4.1,29.49,South,180,0.0,3.8,59,0.00,,,0.00,WUHU21623XXSP,2013-01-23 11:47:00,
2013-01-23 05:52:00,16.0,4.1,29.49,South,180,0.0,3.4,59,0.00,,,0.00,WUHU21623XXSP,2013-01-23 11:52:00,
2013-01-23 05:57:00,16.0,4.1,29.49,SSE,157,0.0,6.0,59,0.00,,,0.00,WUHU21623XXSP,2013-01-23 11:57:00,
2013-01-23 06:02:00,16.0,4.1,29.49,South,180,4.0,6.0,59,0.00,,,0.00,WUHU21623XXSP,2013-01-23 12:02:00,
2013-01-23 06:07:00,16.0,4.5,29.49,South,180,1.1,4.3,60,0.00,,,0.00,WUHU21623XXSP,2013-01-23 12:07:00,
2013-01-23 06:12:00,16.0,4.5,29.48,SSW,202,0.0,4.3,60,0.00,,,0.00,WUHU21623XXSP,2013-01-23 12:12:00,
2013-01-23 06:17:00,16.2,4.6,29.48,SSW,202,0.0,0.0,60,0.00,,,0.00,WUHU21623XXSP,2013-01-23 12:17:00,
2013-01-23 06:22:00,16.2,4.6,29.49,SSW,202,5.4,5.4,60,0.00,,,0.00,WUHU21623XXSP,2013-01-23 12:22:00,
2013-01-23 06:28:00,16.2,4.6,29.48,South,180,0.0,5.4,60,0.00,,,0.00,WUHU21623XXSP,2013-01-23 12:28:00,
2013-01-23 06:33:00,16.3,4.8,29.48,South,180,0.0,0.0,60,0.00,,,0.00,WUHU21623XXSP,2013-01-23 12:33:00,
2013-01-23 06:38:00,16.3,4.8,29.48,SW,225,9.4,9.4,60,0.00,,,0.00,WUHU21623XXSP,2013-01-23 12:38:00,
2013-01-23 06:43:00,16.3,4.8,29.47,SSW,202,0.0,9.4,60,0.00,,,0.00,WUHU21623XXSP,2013-01-23 12:43:00,
2013-01-23 06:48:00,16.3,4.8,29.47,SSW,202,5.1,6.3,60,0.00,,,0.00,WUHU21623XXSP,2013-01-23 12:48:00,
2013-01-23 06:53:00,16.3,4.8,29.47,SSW,202,4.7,5.1,60,0.00,,,0.00,WUHU21623XXSP,2013-01-23 12:53:00,
2013-01-23 06:58:00,16.5,4.8,29.46,South,180,7.6,7.6,60,0.00,,,0.00,WUHU21623XXSP,2013-01-23 12:58:00,
2013-01-23 07:03:00,16.5,5.0,29.46,SSW,202,5.8,7.6,60,0.00,,,0.00,WUHU21623XXSP,2013-01-23 13:03:00,
2013-01-23 07:08:00,16.5,5.0,29.46,South,180,0.0,7.6,60,0.00,,,0.00,WUHU21623XXSP,2013-01-23 13:08:00,
2013-01-23 07:13:00,16.5,5.0,29.45,South,180,2.7,6.9,60,0.00,,,0.00,WUHU21623XXSP,2013-01-23 13:13:00,
2013-01-23 07:18:00,16.5,5.0,29.45,South,180,3.8,8.5,60,0.00,,,0.00,WUHU21623XXSP,2013-01-23 13:18:00,
2013-01-23 07:23:00,16.5,5.0,29.46,SSW,202,0.0,8.5,60,0.00,,,0.00,WUHU21623XXSP,2013-01-23 13:23:00,
2013-01-23 07:28:00,16.7,5.5,29.46,South,180,0.0,6.9,61,0.00,,,0.00,WUHU21623XXSP,2013-01-23 13:28:00,
2013-01-23 07:33:00,16.7,5.5,29.46,SSW,202,3.4,4.0,61,0.00,,,0.00,WUHU21623XXSP,2013-01-23 13:33:00,
2013-01-23 07:38:00,16.9,5.7,29.46,South,180,0.0,7.6,61,0.00,,,0.00,WUHU21623XXSP,2013-01-23 13:38:00,
2013-01-23 07:43:00,16.9,5.7,29.46,South,180,0.0,7.6,61,0.00,,,0.00,WUHU21623XXSP,2013-01-23 13:43:00,
2013-01-23 07:48:00,17.1,5.9,29.46,South,180,0.0,0.0,61,0.00,,,0.00,WUHU21623XXSP,2013-01-23 13:48:00,
2013-01-23 07:53:00,17.2,6.1,29.46,South,180,2.9,4.9,61,0.00,,,0.00,WUHU21623XXSP,2013-01-23 13:53:00,
2013-01-23 07:58:00,17.2,6.1,29.46,South,180,5.8,5.8,61,0.00,,,0.00,WUHU21623XXSP,2013-01-23 13:58:00,
2013-01-23 08:03:00,17.4,6.1,29.46,SSW,202,3.4,5.8,61,0.00,,,0.00,WUHU21623XXSP,2013-01-23 14:03:00,
2013-01-23 08:08:00,17.4,6.2,29.46,SSW,202,7.8,7.8,61,0.00,,,0.00,WUHU21623XXSP,2013-01-23 14:08:00,
2013-01-23 08:13:00,17.4,6.2,29.46,SW,225,0.0,7.8,61,0.00,,,0.00,WUHU21623XXSP,2013-01-23 14:13:00,
2013-01-23 08:18:00,17.4,6.2,29.45,SSW,202,2.2,4.9,61,0.00,,,0.00,WUHU21623XXSP,2013-01-23 14:18:00,
2013-01-23 08:23:00,17.8,6.6,29.45,SSW,202,1.6,4.9,61,0.00,,,0.00,WUHU21623XXSP,2013-01-23 14:23:00,
2013-01-23 08:28:00,17.8,6.6,29.45,SSW,202,1.6,2.9,61,0.00,,,0.00,WUHU21623XXSP,2013-01-23 14:28:00,
2013-01-23 08:33:00,18.0,6.4,29.45,SSE,157,0.0,7.2,60,0.00,,,0.00,WUHU21623XXSP,2013-01-23 14:33:00,
2013-01-23 08:38:00,18.0,6.4,29.45,SW,225,7.2,7.2,60,0.00,,,0.00,WUHU21623XXSP,2013-01-23 14:38:00,
2013-01-23 08:43:00,18.1,6.6,29.45,SSW,202,7.8,7.8,60,0.00,,,0.00,WUHU21623XXSP,2013-01-23 14:43:00,
2013-01-23 08:48:00,18.3,6.7,29.45,South,180,0.7,7.8,60,0.00,,,0.00,WUHU21623XXSP,2013-01-23 14:48:00,
2013-01-23 08:53:00,18.3,6.7,29.45,SSW,202,4.7,6.7,60,0.00,,,0.00,WUHU21623XXSP,2013-01-23 14:53:00,
2013-01-23 08:58:00,18.5,6.9,29.45,SW,225,3.8,4.7,60,0.00,,,0.00,WUHU21623XXSP,2013-01-23 14:58:00,
2013-01-23 09:03:00,18.5,6.9,29.45,SSW,202,2.7,3.8,60,0.00,,,0.00,WUHU21623XXSP,2013-01-23 15:03:00,
2013-01-23 09:08:00,18.9,7.2,29.45,SSW,202,0.0,4.3,60,0.00,,,0.00,WUHU21623XXSP,2013-01-23 15:08:00,
2013-01-23 09:13:00,19.0,7.4,29.45,South,180,0.0,4.3,60,0.00,,,0.00,WUHU21623XXSP,2013-01-23 15:13:00,
2013-01-23 09:18:00,19.2,7.1,29.46,South,180,0.0,2.2,59,0.00,,,0.00,WUHU21623XXSP,2013-01-23 15:18:00,
2013-01-23 09:23:00,19.2,7.1,29.45,South,180,3.6,3.6,59,0.00,,,0.00,WUHU21623XXSP,2013-01-23 15:23:00,
2013-01-23 09:28:00,19.4,7.3,29.46,SW,225,4.9,4.9,59,0.00,,,0.00,WUHU21623XXSP,2013-01-23 15:28:00,
2013-01-23 09:33:00,19.6,7.5,29.46,South,180,3.4,4.9,59,0.00,,,0.00,WUHU21623XXSP,2013-01-23 15:33:00,
2013-01-23 09:38:00,19.6,7.5,29.46,WSW,247,0.0,3.4,59,0.00,,,0.00,WUHU21623XXSP,2013-01-23 15:38:00,
2013-01-23 09:43:00,19.8,7.6,29.46,South,180,0.0,2.7,59,0.00,,,0.00,WUHU21623XXSP,2013-01-23 15:43:00,
2013-01-23 09:48:00,19.8,7.6,29.46,SSE,157,0.7,3.4,59,0.00,,,0.00,WUHU21623XXSP,2013-01-23 15:48:00,
2013-01-23 09:53:00,19.9,7.8,29.46,SW,225,3.8,5.4,59,0.00,,,0.00,WUHU21623XXSP,2013-01-23 15:53:00,
2013-01-23 09:58:00,19.9,7.8,29.46,SSW,202,3.1,5.4,59,0.00,,,0.00,WUHU21623XXSP,2013-01-23 15:58:00,
2013-01-23 10:03:00,20.1,8.0,29.45,SW,225,3.4,3.4,59,0.00,,,0.00,WUHU21623XXSP,2013-01-23 16:03:00,
2013-01-23 10:08:00,20.5,8.4,29.44,SW,225,5.4,7.6,59,0.00,,,0.00,WUHU21623XXSP,2013-01-23 16:08:00,
2013-01-23 10:13:00,20.8,8.7,29.44,SW,225,0.0,7.6,59,0.00,,,0.00,WUHU21623XXSP,2013-01-23 16:13:00,
2013-01-23 10:18:00,21.0,8.9,29.44,SSW,202,0.4,7.2,59,0.00,,,0.00,WUHU21623XXSP,2013-01-23 16:18:00,
2013-01-23 10:23:00,21.6,9.4,29.43,SW,225,4.3,7.2,59,0.00,,,0.00,WUHU21623XXSP,2013-01-23 16:23:00,
2013-01-23 10:28:00,21.9,9.7,29.43,South,180,0.0,4.3,59,0.00,,,0.00,WUHU21623XXSP,2013-01-23 16:28:00,
2013-01-23 10:33:00,22.5,10.2,29.44,SSW,202,2.9,4.9,59,0.00,,,0.00,WUHU21623XXSP,2013-01-23 16:33:00,
2013-01-23 10:38:00,23.4,10.7,29.43,SSW,202,1.1,7.2,58,0.00,,,0.00,WUHU21623XXSP,2013-01-23 16:38:00,
2013-01-23 10:43:00,23.7,11.0,29.43,SSW,202,6.5,7.2,58,0.00,,,0.00,WUHU21623XXSP,2013-01-23 16:43:00,
2013-01-23 10:48:00,24.4,11.7,29.43,SSW,202,1.3,6.5,58,0.00,,,0.00,WUHU21623XXSP,2013-01-23 16:48:00,
2013-01-23 10:53:00,25.5,12.3,29.43,South,180,1.1,6.9,57,0.00,,,0.00,WUHU21623XXSP,2013-01-23 16:53:00,
2013-01-23 10:58:00,26.1,12.4,29.43,SW,225,4.9,9.8,56,0.00,,,0.00,WUHU21623XXSP,2013-01-23 16:58:00,
2013-01-23 11:03:00,26.4,12.3,29.42,South,180,3.8,9.8,55,0.00,,,0.00,WUHU21623XXSP,2013-01-23 17:03:00,
2013-01-23 11:08:00,26.8,12.6,29.42,SW,225,2.5,8.1,55,0.00,,,0.00,WUHU21623XXSP,2013-01-23 17:08:00,
2013-01-23 11:13:00,27.1,12.6,29.42,SW,225,3.6,3.6,54,0.00,,,0.00,WUHU21623XXSP,2013-01-23 17:13:00,
2013-01-23 11:18:00,27.7,13.1,29.41,SSW,202,8.3,8.3,54,0.00,,,0.00,WUHU21623XXSP,2013-01-23 17:18:00,
2013-01-23 11:23:00,28.8,13.8,29.40,SSW,202,1.3,8.3,53,0.00,,,0.00,WUHU21623XXSP,2013-01-23 17:23:00,
2013-01-23 11:28:00,29.1,14.1,29.40,SSE,157,0.0,5.6,53,0.00,,,0.00,WUHU21623XXSP,2013-01-23 17:28:00,
2013-01-23 11:33:00,29.5,13.8,29.40,SW,225,6.9,6.9,52,0.00,,,0.00,WUHU21623XXSP,2013-01-23 17:33:00,
2013-01-23 11:38:00,29.8,13.9,29.40,SW,225,1.3,6.9,51,0.00,,,0.00,WUHU21623XXSP,2013-01-23 17:38:00,
2013-01-23 11:43:00,30.0,13.9,29.39,SW,225,0.0,6.7,51,0.00,,,0.00,WUHU21623XXSP,2013-01-23 17:43:00,
2013-01-23 11:48:00,30.0,14.1,29.39,WSW,247,5.4,5.4,51,0.00,,,0.00,WUHU21623XXSP,2013-01-23 17:48:00,
2013-01-23 11:53:00,30.0,13.7,29.38,WSW,247,6.7,6.7,50,0.00,,,0.00,WUHU21623XXSP,2013-01-23 17:53:00,
2013-01-23 11:58:00,29.8,13.5,29.38,SW,225,7.4,7.6,50,0.00,,,0.00,WUHU21623XXSP,2013-01-23 17:58:00,
2013-01-23 12:03:00,29.8,13.5,29.37,South,180,2.5,7.6,50,0.00,,,0.00,WUHU21623XXSP,2013-01-23 18:03:00,
2013-01-23 12:08:00,30.0,13.5,29.37,SW,225,6.3,7.4,50,0.00,,,0.00,WUHU21623XXSP,2013-01-23 18:08:00,
2013-01-23 12:13:00,30.0,13.7,29.37,SW,225,3.8,6.3,50,0.00,,,0.00,WUHU21623XXSP,2013-01-23 18:13:00,
2013-01-23 12:18:00,30.4,13.7,29.37,SW,225,8.1,8.1,50,0.00,,,0.00,WUHU21623XXSP,2013-01-23 18:18:00,
2013-01-23 12:23:00,30.9,14.5,29.36,SW,225,4.3,8.1,50,0.00,,,0.00,WUHU21623XXSP,2013-01-23 18:23:00,
2013-01-23 12:28:00,31.3,14.8,29.37,SW,225,5.4,6.0,50,0.00,,,0.00,WUHU21623XXSP,2013-01-23 18:28:00,
2013-01-23 12:33:00,31.6,15.1,29.37,WSW,247,5.4,6.3,50,0.00,,,0.00,WUHU21623XXSP,2013-01-23 18:33:00,
2013-01-23 12:38:00,31.6,14.6,29.36,SW,225,7.4,7.4,49,0.00,,,0.00,WUHU21623XXSP,2013-01-23 18:38:00,
2013-01-23 12:43:00,31.6,14.6,29.36,WSW,247,4.3,7.4,49,0.00,,,0.00,WUHU21623XXSP,2013-01-23 18:43:00,
2013-01-23 12:48:00,32.2,15.1,29.36,WSW,247,0.0,5.6,49,0.00,,,0.00,WUHU21623XXSP,2013-01-23 18:48:00,
2013-01-23 12:53:00,32.7,15.6,29.36,West,270,4.9,5.6,49,0.00,,,0.00,WUHU21623XXSP,2013-01-23 18:53:00,
2013-01-23 12:58:00,32.7,15.6,29.36,WSW,247,4.7,5.8,49,0.00,,,0.00,WUHU21623XXSP,2013-01-23 18:58:00,
2013-01-23 13:03:00,32.9,15.7,29.35,WSW,247,3.8,5.8,49,0.00,,,0.00,WUHU21623XXSP,2013-01-23 19:03:00,
2013-01-23 13:08:00,33.1,15.4,29.36,West,270,7.2,7.6,48,0.00,,,0.00,WUHU21623XXSP,2013-01-23 19:08:00,
2013-01-23 13:13:00,33.1,15.4,29.35,NW,315,4.9,7.6,48,0.00,,,0.00,WUHU21623XXSP,2013-01-23 19:13:00,
2013-01-23 13:18:00,32.7,15.2,29.35,West,270,1.3,4.9,48,0.00,,,0.00,WUHU21623XXSP,2013-01-23 19:18:00,
2013-01-23 13:23:00,32.4,15.3,29.36,West,270,3.8,8.1,49,0.00,,,0.00,WUHU21623XXSP,2013-01-23 19:23:00,
2013-01-23 13:28:00,32.5,15.4,29.35,NW,315,7.6,8.1,49,0.00,,,0.00,WUHU21623XXSP,2013-01-23 19:28:00,
2013-01-23 13:33:00,32.5,15.9,29.35,WNW,292,7.4,7.6,50,0.00,,,0.00,WUHU21623XXSP,2013-01-23 19:33:00,
2013-01-23 13:38:00,32.5,15.4,29.35,West,270,4.9,9.6,49,0.00,,,0.00,WUHU21623XXSP,2013-01-23 19:38:00,
2013-01-23 13:43:00,32.2,15.1,29.35,NW,315,2.0,9.6,49,0.00,,,0.00,WUHU21623XXSP,2013-01-23 19:43:00,
2013-01-23 13:48:00,32.2,15.6,29.35,West,270,10.5,10.5,50,0.00,,,0.00,WUHU21623XXSP,2013-01-23 19:48:00,
2013-01-23 13:53:00,32.2,15.6,29.34,WNW,292,6.9,10.5,50,0.00,,,0.00,WUHU21623XXSP,2013-01-23 19:53:00,
2013-01-23 13:58:00,32.2,15.6,29.35,North,0,7.2,8.7,50,0.00,,,0.00,WUHU21623XXSP,2013-01-23 19:58:00,
2013-01-23 14:03:00,32.2,15.6,29.34,NW,315,8.3,8.7,50,0.00,,,0.00,WUHU21623XXSP,2013-01-23 20:03:00,
2013-01-23 14:08:00,32.2,15.6,29.34,West,270,7.8,8.3,50,0.00,,,0.00,WUHU21623XXSP,2013-01-23 20:08:00,
2013-01-23 14:13:00,31.8,15.7,29.34,West,270,4.3,10.5,51,0.00,,,0.00,WUHU21623XXSP,2013-01-23 20:13:00,
2013-01-23 14:18:00,31.8,15.7,29.34,NW,315,0.0,10.5,51,0.00,,,0.00,WUHU21623XXSP,2013-01-23 20:18:00,
2013-01-23 14:23:00,31.8,15.7,29.34,NW,315,0.0,9.4,51,0.00,,,0.00,WUHU21623XXSP,2013-01-23 20:23:00,
2013-01-23 14:28:00,31.8,16.1,29.34,West,270,7.4,9.4,52,0.00,,,0.00,WUHU21623XXSP,2013-01-23 20:28:00,
2013-01-23 14:33:00,32.0,16.3,29.34,NNW,337,4.3,9.4,52,0.00,,,0.00,WUHU21623XXSP,2013-01-23 20:33:00,
2013-01-23 14:38:00,31.8,16.1,29.35,WSW,247,6.3,9.4,52,0.00,,,0.00,WUHU21623XXSP,2013-01-23 20:38:00,
2013-01-23 14:43:00,31.8,16.1,29.35,WSW,247,0.0,6.3,52,0.00,,,0.00,WUHU21623XXSP,2013-01-23 20:43:00,
2013-01-23 14:48:00,31.8,16.1,29.36,West,270,6.7,6.7,52,0.00,,,0.00,WUHU21623XXSP,2013-01-23 20:48:00,
2013-01-23 14:53:00,31.8,16.1,29.35,WNW,292,4.3,6.7,52,0.00,,,0.00,WUHU21623XXSP,2013-01-23 20:53:00,
2013-01-23 14:58:00,31.8,16.1,29.34,West,270,5.8,5.8,52,0.00,,,0.00,WUHU21623XXSP,2013-01-23 20:58:00,
2013-01-23 15:03:00,31.8,16.1,29.34,WSW,247,3.8,5.8,52,0.00,,,0.00,WUHU21623XXSP,2013-01-23 21:03:00,
2013-01-23 15:08:00,31.8,16.1,29.35,West,270,2.5,4.0,52,0.00,,,0.00,WUHU21623XXSP,2013-01-23 21:08:00,
2013-01-23 15:13:00,31.8,16.1,29.34,West,270,6.0,6.0,52,0.00,,,0.00,WUHU21623XXSP,2013-01-23 21:13:00,
2013-01-23 15:18:00,31.8,16.1,29.35,North,0,0.9,6.0,52,0.00,,,0.00,WUHU21623XXSP,2013-01-23 21:18:00,
2013-01-23 15:23:00,31.8,16.1,29.35,NW,315,3.4,4.3,52,0.00,,,0.00,WUHU21623XXSP,2013-01-23 21:23:00,
2013-01-23 15:28:00,31.6,16.0,29.35,NNW,337,5.8,5.8,52,0.00,,,0.00,WUHU21623XXSP,2013-01-23 21:28:00,
2013-01-23 15:33:00,31.5,15.8,29.35,WNW,292,4.5,9.2,52,0.00,,,0.00,WUHU21623XXSP,2013-01-23 21:33:00,
2013-01-23 15:38:00,31.3,15.6,29.36,NNW,337,7.8,9.2,52,0.00,,,0.00,WUHU21623XXSP,2013-01-23 21:38:00,
2013-01-23 15:43:00,31.3,16.1,29.36,NW,315,8.5,8.5,53,0.00,,,0.00,WUHU21623XXSP,2013-01-23 21:43:00,
2013-01-23 15:48:00,31.3,16.1,29.36,WNW,292,6.3,8.5,53,0.00,,,0.00,WUHU21623XXSP,2013-01-23 21:48:00,
2013-01-23 15:53:00,31.1,15.9,29.37,West,270,1.3,6.3,53,0.00,,,0.00,WUHU21623XXSP,2013-01-23 21:53:00,
2013-01-23 15:58:00,30.9,15.3,29.37,WNW,292,6.0,6.0,52,0.00,,,0.00,WUHU21623XXSP,2013-01-23 21:58:00,
2013-01-23 16:03:00,30.7,15.1,29.37,West,270,14.1,14.1,52,0.00,,,0.00,WUHU21623XXSP,2013-01-23 22:03:00,
2013-01-23 16:08:00,30.4,15.5,29.38,WNW,292,4.5,14.1,52,0.00,,,0.00,WUHU21623XXSP,2013-01-23 22:08:00,
2013-01-23 16:13:00,30.4,14.8,29.38,NNW,337,1.3,4.5,52,0.00,,,0.00,WUHU21623XXSP,2013-01-23 22:13:00,
2013-01-23 16:18:00,30.0,15.1,29.38,NW,315,6.0,6.0,52,0.00,,,0.00,WUHU21623XXSP,2013-01-23 22:18:00,
2013-01-23 16:23:00,29.8,14.7,29.38,WNW,292,9.2,9.2,53,0.00,,,0.00,WUHU21623XXSP,2013-01-23 22:23:00,
2013-01-23 16:28:00,29.5,14.4,29.38,NNE,22,6.0,9.2,53,0.00,,,0.00,WUHU21623XXSP,2013-01-23 22:28:00,
2013-01-23 16:33:00,29.1,14.5,29.38,West,270,5.4,6.0,54,0.00,,,0.00,WUHU21623XXSP,2013-01-23 22:33:00,
2013-01-23 16:38:00,28.6,14.0,29.38,West,270,0.0,5.4,54,0.00,,,0.00,WUHU21623XXSP,2013-01-23 22:38:00,
2013-01-23 16:43:00,28.2,13.7,29.38,North,0,2.0,5.4,54,0.00,,,0.00,WUHU21623XXSP,2013-01-23 22:43:00,
2013-01-23 16:48:00,28.2,13.7,29.38,North,0,0.0,4.7,54,0.00,,,0.00,WUHU21623XXSP,2013-01-23 22:48:00,
2013-01-23 16:53:00,28.0,13.9,29.38,NW,315,0.0,1.3,55,0.00,,,0.00,WUHU21623XXSP,2013-01-23 22:53:00,
2013-01-23 16:58:00,27.7,13.6,29.39,West,270,0.0,0.0,55,0.00,,,0.00,WUHU21623XXSP,2013-01-23 22:58:00,
2013-01-23 17:03:00,27.5,13.4,29.39,WSW,247,3.6,3.6,55,0.00,,,0.00,WUHU21623XXSP,2013-01-23 23:03:00,
2013-01-23 17:08:00,27.3,13.6,29.39,NNW,337,1.3,3.6,56,0.00,,,0.00,WUHU21623XXSP,2013-01-23 23:08:00,
2013-01-23 17:13:00,27.1,13.6,29.39,WNW,292,1.3,1.3,56,0.00,,,0.00,WUHU21623XXSP,2013-01-23 23:13:00,
2013-01-23 17:18:00,27.1,13.4,29.39,WNW,292,0.0,1.3,56,0.00,,,0.00,WUHU21623XXSP,2013-01-23 23:18:00,
2013-01-23 17:23:00,26.8,13.5,29.39,WNW,292,0.0,3.6,57,0.00,,,0.00,WUHU21623XXSP,2013-01-23 23:23:00,
2013-01-23 17:28:00,26.6,13.3,29.39,West,270,0.0,3.6,57,0.00,,,0.00,WUHU21623XXSP,2013-01-23 23:28:00,
2013-01-23 17:33:00,26.4,13.1,29.39,WNW,292,1.6,1.6,57,0.00,,,0.00,WUHU21623XXSP,2013-01-23 23:33:00,
2013-01-23 17:38:00,26.4,13.1,29.40,WSW,247,0.0,4.0,57,0.00,,,0.00,WUHU21623XXSP,2013-01-23 23:38:00,
2013-01-23 17:43:00,26.2,13.0,29.41,WNW,292,0.0,4.0,57,0.00,,,0.00,WUHU21623XXSP,2013-01-23 23:43:00,
2013-01-23 17:48:00,26.2,13.0,29.41,West,270,0.0,0.0,57,0.00,,,0.00,WUHU21623XXSP,2013-01-23 23:48:00,
2013-01-23 17:53:00,25.9,13.1,29.41,NNE,22,0.0,6.0,58,0.00,,,0.00,WUHU21623XXSP,2013-01-23 23:53:00,
2013-01-23 17:58:00,25.9,13.1,29.41,NNE,22,6.5,6.5,58,0.00,,,0.00,WUHU21623XXSP,2013-01-23 23:58:00,
2013-01-23 18:03:00,25.7,13.1,29.41,NNE,22,6.5,6.5,58,0.00,,,0.00,WUHU21623XXSP,2013-01-24 00:03:00,
2013-01-23 18:08:00,25.5,12.7,29.41,West,270,1.1,6.5,58,0.00,,,0.00,WUHU21623XXSP,2013-01-24 00:08:00,
2013-01-23 18:13:00,25.5,12.7,29.42,North,0,9.2,9.2,58,0.00,,,0.00,WUHU21623XXSP,2013-01-24 00:13:00,
2013-01-23 18:18:00,25.3,12.7,29.43,North,0,2.2,9.2,58,0.00,,,0.00,WUHU21623XXSP,2013-01-24 00:18:00,
2013-01-23 18:23:00,25.2,12.0,29.42,West,270,1.3,2.2,57,0.00,,,0.00,WUHU21623XXSP,2013-01-24 00:23:00,
2013-01-23 18:28:00,25.0,11.8,29.43,NNW,337,3.8,3.8,57,0.00,,,0.00,WUHU21623XXSP,2013-01-24 00:28:00,
2013-01-23 18:33:00,25.0,11.8,29.43,NW,315,4.5,4.5,58,0.00,,,0.00,WUHU21623XXSP,2013-01-24 00:33:00,
2013-01-23 18:38:00,24.6,11.9,29.43,WNW,292,4.0,4.5,58,0.00,,,0.00,WUHU21623XXSP,2013-01-24 00:38:00,
2013-01-23 18:43:00,24.4,11.9,29.43,NNW,337,0.0,4.5,58,0.00,,,0.00,WUHU21623XXSP,2013-01-24 00:43:00,
2013-01-23 18:48:00,24.3,11.6,29.44,NNW,337,0.0,0.0,58,0.00,,,0.00,WUHU21623XXSP,2013-01-24 00:48:00,
2013-01-23 18:53:00,24.1,11.8,29.44,NW,315,0.0,4.0,59,0.00,,,0.00,WUHU21623XXSP,2013-01-24 00:53:00,
2013-01-23 18:58:00,23.9,11.6,29.45,NW,315,0.0,4.0,59,0.00,,,0.00,WUHU21623XXSP,2013-01-24 00:58:00,
2013-01-23 19:03:00,23.7,11.4,29.45,NNE,22,0.0,0.0,59,0.00,,,0.00,WUHU21623XXSP,2013-01-24 01:03:00,
2013-01-23 19:08:00,23.5,11.4,29.45,NNW,337,2.7,3.4,59,0.00,,,0.00,WUHU21623XXSP,2013-01-24 01:08:00,
2013-01-23 19:13:00,23.5,11.2,29.46,NW,315,6.3,6.3,59,0.00,,,0.00,WUHU21623XXSP,2013-01-24 01:13:00,
2013-01-23 19:18:00,23.4,11.1,29.45,WNW,292,0.0,6.3,59,0.00,,,0.00,WUHU21623XXSP,2013-01-24 01:18:00,
2013-01-23 19:23:00,23.2,10.9,29.45,WNW,292,2.0,2.7,59,0.00,,,0.00,WUHU21623XXSP,2013-01-24 01:23:00,
2013-01-23 19:28:00,23.0,10.3,29.46,NNE,22,6.7,6.7,58,0.00,,,0.00,WUHU21623XXSP,2013-01-24 01:28:00,
2013-01-23 19:33:00,22.8,10.1,29.46,North,0,3.8,6.7,58,0.00,,,0.00,WUHU21623XXSP,2013-01-24 01:33:00,
2013-01-23 19:38:00,22.6,10.0,29.46,North,0,7.2,7.2,58,0.00,,,0.00,WUHU21623XXSP,2013-01-24 01:38:00,
2013-01-23 19:43:00,22.5,9.8,29.46,NNW,337,1.1,7.2,58,0.00,,,0.00,WUHU21623XXSP,2013-01-24 01:43:00,
2013-01-23 19:48:00,22.3,9.7,29.47,NW,315,5.1,5.1,58,0.00,,,0.00,WUHU21623XXSP,2013-01-24 01:48:00,
2013-01-23 19:53:00,21.9,9.5,29.48,NW,315,8.9,8.9,58,0.00,,,0.00,WUHU21623XXSP,2013-01-24 01:53:00,
2013-01-23 19:58:00,21.9,9.3,29.48,NE,45,4.7,8.9,58,0.00,,,0.00,WUHU21623XXSP,2013-01-24 01:58:00,
2013-01-23 20:03:00,21.7,8.7,29.49,NNW,337,4.0,7.4,57,0.00,,,0.00,WUHU21623XXSP,2013-01-24 02:03:00,
2013-01-23 20:08:00,21.4,8.6,29.49,NW,315,3.8,4.7,57,0.00,,,0.00,WUHU21623XXSP,2013-01-24 02:08:00,
2013-01-23 20:13:00,21.4,8.8,29.49,NW,315,3.8,3.8,57,0.00,,,0.00,WUHU21623XXSP,2013-01-24 02:13:00,
2013-01-23 20:18:00,21.0,8.1,29.49,NNE,22,0.0,5.8,57,0.00,,,0.00,WUHU21623XXSP,2013-01-24 02:18:00,
2013-01-23 20:23:00,20.5,6.7,29.50,WNW,292,6.5,7.8,55,0.00,,,0.00,WUHU21623XXSP,2013-01-24 02:23:00,
2013-01-23 20:28:00,20.3,6.2,29.50,NNW,337,6.9,7.8,54,0.00,,,0.00,WUHU21623XXSP,2013-01-24 02:28:00,
2013-01-23 20:33:00,19.9,6.0,29.51,NNW,337,4.9,6.9,53,0.00,,,0.00,WUHU21623XXSP,2013-01-24 02:33:00,
2013-01-23 20:38:00,19.6,5.3,29.51,NNW,337,4.5,9.2,53,0.00,,,0.00,WUHU21623XXSP,2013-01-24 02:38:00,
2013-01-23 20:43:00,19.4,5.1,29.51,NNW,337,7.6,9.2,53,0.00,,,0.00,WUHU21623XXSP,2013-01-24 02:43:00,
2013-01-23 20:48:00,19.0,5.0,29.51,NNW,337,5.4,7.6,54,0.00,,,0.00,WUHU21623XXSP,2013-01-24 02:48:00,
2013-01-23 20:53:00,18.3,4.7,29.52,ENE,67,8.1,12.5,55,0.00,,,0.00,WUHU21623XXSP,2013-01-24 02:53:00,
2013-01-23 20:58:00,18.1,4.6,29.52,NW,315,7.2,14.8,55,0.00,,,0.00,WUHU21623XXSP,2013-01-24 02:58:00,
2013-01-23 21:03:00,17.8,4.3,29.53,NE,45,5.6,14.8,55,0.00,,,0.00,WUHU21623XXSP,2013-01-24 03:03:00,
2013-01-23 21:08:00,17.4,3.9,29.54,WSW,247,6.0,8.3,55,0.00,,,0.00,WUHU21623XXSP,2013-01-24 03:08:00,
2013-01-23 21:13:00,16.9,3.4,29.53,NNW,337,5.8,13.4,55,0.00,,,0.00,WUHU21623XXSP,2013-01-24 03:13:00,
2013-01-23 21:18:00,16.5,3.5,29.54,NE,45,7.2,13.4,56,0.00,,,0.00,WUHU21623XXSP,2013-01-24 03:18:00,
2013-01-23 21:23:00,16.2,3.5,29.54,NNW,337,7.2,12.8,57,0.00,,,0.00,WUHU21623XXSP,2013-01-24 03:23:00,
2013-01-23 21:28:00,15.8,3.1,29.54,NW,315,7.8,7.8,57,0.00,,,0.00,WUHU21623XXSP,2013-01-24 03:28:00,
2013-01-23 21:33:00,15.6,3.0,29.54,North,0,7.4,7.8,57,0.00,,,0.00,WUHU21623XXSP,2013-01-24 03:33:00,
2013-01-23 21:38:00,15.4,2.8,29.54,NNW,337,11.9,11.9,57,0.00,,,0.00,WUHU21623XXSP,2013-01-24 03:38:00,
2013-01-23 21:43:00,15.3,2.6,29.54,NE,45,7.2,11.9,58,0.00,,,0.00,WUHU21623XXSP,2013-01-24 03:43:00,
2013-01-23 21:48:00,15.1,2.9,29.55,NE,45,3.6,7.2,58,0.00,,,0.00,WUHU21623XXSP,2013-01-24 03:48:00,
2013-01-23 21:53:00,14.9,2.7,29.56,NNW,337,0.0,7.2,58,0.00,,,0.00,WUHU21623XXSP,2013-01-24 03:53:00,
2013-01-23 21:58:00,14.7,2.7,29.56,NNW,337,13.4,13.4,59,0.00,,,0.00,WUHU21623XXSP,2013-01-24 03:58:00,
2013-01-23 22:03:00,14.7,2.9,29.56,North,0,8.3,13.4,59,0.00,,,0.00,WUHU21623XXSP,2013-01-24 04:03:00,
2013-01-23 22:08:00,14.5,2.8,29.56,NE,45,6.5,8.3,59,0.00,,,0.00,WUHU21623XXSP,2013-01-24 04:08:00,
2013-01-23 22:13:00,14.4,2.6,29.57,NNW,337,4.9,6.5,59,0.00,,,0.00,WUHU21623XXSP,2013-01-24 04:13:00,
2013-01-23 22:18:00,14.2,2.4,29.56,NE,45,5.4,5.6,59,0.00,,,0.00,WUHU21623XXSP,2013-01-24 04:18:00,
2013-01-23 22:23:00,14.2,2.8,29.58,NNE,22,3.1,10.5,60,0.00,,,0.00,WUHU21623XXSP,2013-01-24 04:23:00,
2013-01-23 22:57:00,13.3,2.4,29.59,NW,315,3.6,3.6,61,0.00,,,0.00,WUHU21623XXSP,2013-01-24 04:57:00,
2013-01-23 23:57:00,12.0,1.2,29.64,NNE,23,0.0,0.0,61,0.00,,,0.00,WUHU21623XXSP,2013-01-24 05:57:00,